createdAt,value
2017-09-03T00:00:25.651Z,0
2017-09-03T00:01:39.274Z,0
2017-09-03T00:02:53.653Z,0
2017-09-03T00:04:07.563Z,0
2017-09-03T00:05:21.402Z,0
2017-09-03T00:06:35.718Z,0
2017-09-03T00:07:49.475Z,0
2017-09-03T00:09:03.482Z,0
2017-09-03T00:10:17.732Z,0
2017-09-03T00:11:31.382Z,0
2017-09-03T00:12:45.044Z,0
2017-09-03T00:13:59.017Z,0
2017-09-03T00:15:14.503Z,0
2017-09-03T00:16:28.104Z,0
2017-09-03T00:17:41.685Z,0
2017-09-03T00:18:55.273Z,0
2017-09-03T00:20:08.972Z,0
2017-09-03T00:21:22.859Z,0
2017-09-03T00:22:36.434Z,0
2017-09-03T00:23:50.778Z,0
2017-09-03T00:25:04.368Z,0
2017-09-03T00:26:18.443Z,0
2017-09-03T00:27:32.648Z,0
2017-09-03T00:28:46.288Z,0
2017-09-03T00:30:00.179Z,0
2017-09-03T00:31:13.754Z,0
2017-09-03T00:32:27.477Z,0
2017-09-03T00:33:41.351Z,0
2017-09-03T00:34:55.318Z,0
2017-09-03T00:36:08.903Z,0
2017-09-03T00:37:22.996Z,0
2017-09-03T00:38:36.631Z,0
2017-09-03T00:39:50.502Z,0
2017-09-03T00:41:04.569Z,0
2017-09-03T00:42:18.219Z,0
2017-09-03T00:43:32.242Z,0
2017-09-03T00:44:46.176Z,0
2017-09-03T00:46:00.394Z,0
2017-09-03T00:47:14.040Z,0
2017-09-03T00:48:27.670Z,0
2017-09-03T00:49:41.267Z,0
2017-09-03T00:50:55.217Z,0
2017-09-03T00:52:09.555Z,0
2017-09-03T00:53:23.529Z,0
2017-09-03T00:54:37.191Z,0
2017-09-03T00:55:51.077Z,0
2017-09-03T00:57:05.228Z,0
2017-09-03T00:58:19.148Z,0
2017-09-03T00:59:33.183Z,0
2017-09-03T01:00:46.963Z,0
2017-09-03T01:02:00.539Z,0
2017-09-03T01:03:14.163Z,0
2017-09-03T01:04:28.049Z,0
2017-09-03T01:05:41.616Z,0
2017-09-03T01:06:55.213Z,0
2017-09-03T01:08:08.954Z,0
2017-09-03T01:09:22.664Z,0
2017-09-03T01:10:37.397Z,0
2017-09-03T01:11:50.975Z,0
2017-09-03T01:13:04.898Z,0
2017-09-03T01:14:18.522Z,0
2017-09-03T01:15:32.698Z,0
2017-09-03T01:16:46.702Z,0
2017-09-03T01:18:00.381Z,0
2017-09-03T01:19:14.383Z,0
2017-09-03T01:20:28.303Z,0
2017-09-03T01:21:42.271Z,0
2017-09-03T01:22:56.209Z,0
2017-09-03T01:24:09.817Z,0
2017-09-03T01:25:23.393Z,0
2017-09-03T01:26:36.954Z,0
2017-09-03T01:27:50.525Z,0
2017-09-03T01:29:04.449Z,0
2017-09-03T01:30:18.019Z,0
2017-09-03T01:31:31.639Z,0
2017-09-03T01:32:45.231Z,0
2017-09-03T01:33:59.155Z,0
2017-09-03T01:35:13.198Z,0
2017-09-03T01:36:26.840Z,0
2017-09-03T01:37:40.406Z,0
2017-09-03T01:38:53.994Z,0
2017-09-03T01:40:07.561Z,0
2017-09-03T01:41:21.507Z,0
2017-09-03T01:42:35.080Z,0
2017-09-03T01:43:48.714Z,0
2017-09-03T01:45:02.327Z,0
2017-09-03T01:46:15.901Z,0
2017-09-03T01:47:29.762Z,0
2017-09-03T01:48:43.333Z,0
2017-09-03T01:49:56.989Z,0
2017-09-03T01:51:10.539Z,0
2017-09-03T01:52:24.108Z,0
2017-09-03T01:53:38.032Z,0
2017-09-03T01:54:51.802Z,0
2017-09-03T01:56:05.431Z,0
2017-09-03T01:57:19.120Z,0
2017-09-03T01:58:32.719Z,0
2017-09-03T01:59:46.598Z,0
2017-09-03T02:01:00.508Z,0
2017-09-03T02:02:14.070Z,0
2017-09-03T02:03:27.639Z,0
2017-09-03T02:04:41.273Z,0
2017-09-03T02:05:55.150Z,0
2017-09-03T02:07:08.721Z,0
2017-09-03T02:08:22.297Z,0
2017-09-03T02:09:35.887Z,0
2017-09-03T02:10:49.450Z,0
2017-09-03T02:12:03.448Z,0
2017-09-03T02:13:17.042Z,0
2017-09-03T02:14:30.652Z,0
2017-09-03T02:15:44.249Z,0
2017-09-03T02:16:57.857Z,0
2017-09-03T02:18:18.322Z,0
2017-09-03T02:19:31.886Z,0
2017-09-03T02:20:45.477Z,0
2017-09-03T02:21:59.096Z,0
2017-09-03T02:23:12.893Z,0
2017-09-03T02:24:26.798Z,0
2017-09-03T02:25:40.365Z,0
2017-09-03T02:26:54.149Z,0
2017-09-03T02:28:07.731Z,0
2017-09-03T02:29:21.447Z,0
2017-09-03T02:30:35.314Z,0
2017-09-03T02:31:49.416Z,0
2017-09-03T02:33:03.043Z,0
2017-09-03T02:34:16.620Z,0
2017-09-03T02:35:30.516Z,0
2017-09-03T02:36:44.390Z,0
2017-09-03T02:37:57.945Z,0
2017-09-03T02:39:11.545Z,0
2017-09-03T02:40:25.115Z,0
2017-09-03T02:41:38.867Z,0
2017-09-03T02:42:52.771Z,0
2017-09-03T02:44:06.328Z,0
2017-09-03T02:45:19.887Z,0
2017-09-03T02:46:33.485Z,0
2017-09-03T02:47:47.040Z,0
2017-09-03T02:49:01.298Z,0
2017-09-03T02:50:15.174Z,0
2017-09-03T02:51:28.737Z,0
2017-09-03T02:52:42.348Z,0
2017-09-03T02:53:55.931Z,0
2017-09-03T02:55:09.962Z,0
2017-09-03T02:56:23.689Z,0
2017-09-03T02:57:37.297Z,0
2017-09-03T02:58:50.863Z,0
2017-09-03T03:00:04.435Z,0
2017-09-03T03:01:18.309Z,0
2017-09-03T03:02:32.031Z,0
2017-09-03T03:03:45.645Z,0
2017-09-03T03:04:59.231Z,0
2017-09-03T03:06:13.124Z,0
2017-09-03T03:07:27.009Z,0
2017-09-03T03:08:40.750Z,0
2017-09-03T03:09:54.492Z,0
2017-09-03T03:11:08.196Z,0
2017-09-03T03:12:21.959Z,0
2017-09-03T03:13:35.856Z,0
2017-09-03T03:14:49.402Z,0
2017-09-03T03:16:02.964Z,0
2017-09-03T03:17:16.674Z,0
2017-09-03T03:18:30.257Z,0
2017-09-03T03:19:44.462Z,0
2017-09-03T03:20:58.341Z,0
2017-09-03T03:22:11.898Z,0
2017-09-03T03:23:25.463Z,0
2017-09-03T03:24:39.083Z,0
2017-09-03T03:25:52.934Z,0
2017-09-03T03:27:06.615Z,0
2017-09-03T03:28:20.172Z,0
2017-09-03T03:29:34.307Z,0
2017-09-03T03:30:48.292Z,0
2017-09-03T03:32:02.195Z,0
2017-09-03T03:33:15.754Z,0
2017-09-03T03:34:29.470Z,0
2017-09-03T03:35:43.103Z,0
2017-09-03T03:36:56.983Z,0
2017-09-03T03:38:10.868Z,0
2017-09-03T03:39:24.569Z,0
2017-09-03T03:40:38.119Z,0
2017-09-03T03:41:52.056Z,0
2017-09-03T03:43:05.985Z,0
2017-09-03T03:44:19.917Z,0
2017-09-03T03:45:33.673Z,0
2017-09-03T03:46:47.554Z,0
2017-09-03T03:48:01.421Z,0
2017-09-03T03:49:15.046Z,0
2017-09-03T03:50:28.919Z,0
2017-09-03T03:51:42.477Z,0
2017-09-03T03:52:56.053Z,0
2017-09-03T03:54:09.636Z,0
2017-09-03T03:55:23.193Z,0
2017-09-03T03:56:37.074Z,0
2017-09-03T03:57:50.641Z,0
2017-09-03T03:59:04.204Z,0
2017-09-03T04:00:17.839Z,0
2017-09-03T04:01:31.510Z,0
2017-09-03T04:02:45.358Z,0
2017-09-03T04:03:58.921Z,0
2017-09-03T04:05:12.662Z,0
2017-09-03T04:06:26.624Z,0
2017-09-03T04:07:40.218Z,0
2017-09-03T04:08:54.098Z,0
2017-09-03T04:10:07.703Z,0
2017-09-03T04:11:21.629Z,0
2017-09-03T04:12:35.685Z,0
2017-09-03T04:13:49.268Z,0
2017-09-03T04:15:03.479Z,0
2017-09-03T04:16:17.096Z,0
2017-09-03T04:17:30.670Z,0
2017-09-03T04:18:44.225Z,0
2017-09-03T04:19:57.805Z,0
2017-09-03T04:21:12.097Z,0
2017-09-03T04:22:25.667Z,0
2017-09-03T04:23:39.223Z,0
2017-09-03T04:24:52.788Z,0
2017-09-03T04:26:06.693Z,0
2017-09-03T04:27:20.901Z,0
2017-09-03T04:28:34.632Z,0
2017-09-03T04:29:48.190Z,0
2017-09-03T04:31:03.094Z,0
2017-09-03T04:32:16.640Z,0
2017-09-03T04:33:30.632Z,0
2017-09-03T04:34:44.524Z,0
2017-09-03T04:35:58.089Z,0
2017-09-03T04:37:11.719Z,0
2017-09-03T04:38:25.283Z,0
2017-09-03T04:39:39.461Z,0
2017-09-03T04:40:53.009Z,0
2017-09-03T04:42:06.627Z,0
2017-09-03T04:43:20.209Z,5
2017-09-03T04:44:33.783Z,5
2017-09-03T04:45:47.669Z,5
2017-09-03T04:47:01.410Z,5
2017-09-03T04:48:14.978Z,5
2017-09-03T04:49:28.568Z,5
2017-09-03T04:50:42.146Z,5
2017-09-03T04:51:56.063Z,10
2017-09-03T04:53:09.638Z,10
2017-09-03T04:54:24.211Z,10
2017-09-03T04:55:37.770Z,10
2017-09-03T04:56:51.340Z,10
2017-09-03T04:58:05.310Z,15
2017-09-03T04:59:19.268Z,15
2017-09-03T05:00:32.963Z,20
2017-09-03T05:01:46.523Z,20
2017-09-03T05:03:00.153Z,20
2017-09-03T05:04:14.019Z,25
2017-09-03T05:05:27.568Z,25
2017-09-03T05:06:41.195Z,30
2017-09-03T05:07:54.825Z,30
2017-09-03T05:09:08.558Z,35
2017-09-03T05:10:22.469Z,35
2017-09-03T05:11:36.365Z,40
2017-09-03T05:12:49.914Z,40
2017-09-03T05:14:03.461Z,40
2017-09-03T05:15:17.064Z,45
2017-09-03T05:16:30.999Z,45
2017-09-03T05:17:44.585Z,45
2017-09-03T05:18:58.152Z,50
2017-09-03T05:20:12.061Z,50
2017-09-03T05:21:26.101Z,55
2017-09-03T05:22:40.014Z,50
2017-09-03T05:23:53.733Z,60
2017-09-03T05:25:07.313Z,60
2017-09-03T05:26:21.099Z,60
2017-09-03T05:27:34.667Z,60
2017-09-03T05:28:48.595Z,60
2017-09-03T05:30:02.275Z,60
2017-09-03T05:31:15.839Z,65
2017-09-03T05:32:29.392Z,65
2017-09-03T05:33:42.972Z,65
2017-09-03T05:34:56.838Z,65
2017-09-03T05:36:10.656Z,60
2017-09-03T05:37:24.212Z,65
2017-09-03T05:38:38.327Z,65
2017-09-03T05:39:51.930Z,65
2017-09-03T05:41:12.610Z,70
2017-09-03T05:42:26.764Z,70
2017-09-03T05:43:41.048Z,70
2017-09-03T05:44:54.637Z,65
2017-09-03T05:46:08.741Z,65
2017-09-03T05:47:22.658Z,70
2017-09-03T05:48:36.223Z,70
2017-09-03T05:49:50.226Z,70
2017-09-03T05:51:04.061Z,70
2017-09-03T05:52:17.817Z,75
2017-09-03T05:53:31.802Z,80
2017-09-03T05:54:45.541Z,80
2017-09-03T05:55:59.101Z,85
2017-09-03T05:57:12.717Z,95
2017-09-03T05:58:26.279Z,100
2017-09-03T05:59:40.327Z,105
2017-09-03T06:00:53.885Z,105
2017-09-03T06:02:07.516Z,95
2017-09-03T06:03:21.130Z,90
2017-09-03T06:04:34.709Z,90
2017-09-03T06:05:48.613Z,95
2017-09-03T06:07:02.262Z,100
2017-09-03T06:08:15.831Z,100
2017-09-03T06:09:29.611Z,105
2017-09-03T06:10:43.188Z,100
2017-09-03T06:11:57.076Z,90
2017-09-03T06:13:10.725Z,90
2017-09-03T06:14:24.323Z,100
2017-09-03T06:15:37.890Z,120
2017-09-03T06:16:51.482Z,125
2017-09-03T06:18:05.458Z,120
2017-09-03T06:19:19.072Z,125
2017-09-03T06:20:33.216Z,120
2017-09-03T06:21:46.795Z,125
2017-09-03T06:23:00.764Z,120
2017-09-03T06:24:15.035Z,130
2017-09-03T06:25:28.611Z,120
2017-09-03T06:26:42.462Z,125
2017-09-03T06:27:56.301Z,125
2017-09-03T06:29:10.227Z,115
2017-09-03T06:30:24.473Z,115
2017-09-03T06:31:38.071Z,120
2017-09-03T06:32:51.788Z,125
2017-09-03T06:34:05.906Z,120
2017-09-03T06:35:19.490Z,135
2017-09-03T06:36:33.397Z,150
2017-09-03T06:37:47.023Z,155
2017-09-03T06:39:00.607Z,155
2017-09-03T06:40:14.169Z,135
2017-09-03T06:41:27.827Z,125
2017-09-03T06:42:41.688Z,130
2017-09-03T06:43:55.268Z,140
2017-09-03T06:45:08.887Z,150
2017-09-03T06:46:22.467Z,150
2017-09-03T06:47:36.265Z,170
2017-09-03T06:48:50.184Z,170
2017-09-03T06:50:03.790Z,160
2017-09-03T06:51:17.373Z,165
2017-09-03T06:52:30.925Z,155
2017-09-03T06:53:44.809Z,155
2017-09-03T06:54:58.691Z,160
2017-09-03T06:56:12.271Z,150
2017-09-03T06:57:25.872Z,155
2017-09-03T06:58:39.443Z,190
2017-09-03T06:59:53.005Z,215
2017-09-03T07:01:06.889Z,200
2017-09-03T07:02:20.540Z,200
2017-09-03T07:03:34.093Z,210
2017-09-03T07:04:47.677Z,205
2017-09-03T07:06:01.309Z,200
2017-09-03T07:07:15.519Z,200
2017-09-03T07:08:29.226Z,195
2017-09-03T07:09:42.794Z,185
2017-09-03T07:10:56.421Z,190
2017-09-03T07:12:09.989Z,195
2017-09-03T07:13:23.850Z,195
2017-09-03T07:14:37.807Z,190
2017-09-03T07:15:51.448Z,185
2017-09-03T07:17:05.259Z,175
2017-09-03T07:18:18.867Z,175
2017-09-03T07:19:32.741Z,185
2017-09-03T07:20:46.293Z,190
2017-09-03T07:21:59.852Z,195
2017-09-03T07:23:13.618Z,200
2017-09-03T07:24:27.182Z,200
2017-09-03T07:25:41.074Z,215
2017-09-03T07:26:54.661Z,235
2017-09-03T07:28:08.559Z,235
2017-09-03T07:29:22.779Z,225
2017-09-03T07:30:36.361Z,215
2017-09-03T07:31:50.440Z,205
2017-09-03T07:33:04.250Z,210
2017-09-03T07:34:18.533Z,205
2017-09-03T07:35:32.646Z,205
2017-09-03T07:36:46.343Z,210
2017-09-03T07:38:00.213Z,205
2017-09-03T07:39:14.002Z,205
2017-09-03T07:40:27.764Z,210
2017-09-03T07:41:41.344Z,220
2017-09-03T07:42:55.241Z,215
2017-09-03T07:44:09.793Z,210
2017-09-03T07:45:23.959Z,215
2017-09-03T07:46:37.921Z,225
2017-09-03T07:47:51.505Z,235
2017-09-03T07:49:05.353Z,235
2017-09-03T07:50:19.288Z,235
2017-09-03T07:51:33.243Z,240
2017-09-03T07:52:46.815Z,240
2017-09-03T07:54:00.436Z,235
2017-09-03T07:55:14.135Z,235
2017-09-03T07:56:28.166Z,230
2017-09-03T07:57:42.260Z,230
2017-09-03T07:58:55.832Z,225
2017-09-03T08:00:09.529Z,225
2017-09-03T08:01:23.129Z,215
2017-09-03T08:02:37.023Z,215
2017-09-03T08:03:50.687Z,215
2017-09-03T08:05:04.298Z,230
2017-09-03T08:06:17.888Z,240
2017-09-03T08:07:31.515Z,245
2017-09-03T08:08:45.409Z,240
2017-09-03T08:09:59.110Z,235
2017-09-03T08:11:13.101Z,230
2017-09-03T08:12:26.668Z,235
2017-09-03T08:13:40.258Z,245
2017-09-03T08:14:54.115Z,255
2017-09-03T08:16:07.878Z,235
2017-09-03T08:17:21.791Z,215
2017-09-03T08:18:35.376Z,210
2017-09-03T08:19:49.367Z,235
2017-09-03T08:21:03.273Z,250
2017-09-03T08:22:16.918Z,250
2017-09-03T08:23:30.956Z,245
2017-09-03T08:24:44.535Z,260
2017-09-03T08:25:58.116Z,255
2017-09-03T08:27:12.360Z,260
2017-09-03T08:28:25.961Z,255
2017-09-03T08:29:39.536Z,250
2017-09-03T08:30:53.220Z,250
2017-09-03T08:32:06.853Z,265
2017-09-03T08:33:20.722Z,275
2017-09-03T08:34:34.310Z,275
2017-09-03T08:35:48.243Z,265
2017-09-03T08:37:02.726Z,255
2017-09-03T08:38:16.632Z,250
2017-09-03T08:39:30.590Z,245
2017-09-03T08:40:44.212Z,250
2017-09-03T08:41:58.178Z,265
2017-09-03T08:43:11.758Z,275
2017-09-03T08:44:25.437Z,265
2017-09-03T08:45:39.864Z,245
2017-09-03T08:46:54.107Z,235
2017-09-03T08:48:07.886Z,225
2017-09-03T08:49:21.652Z,230
2017-09-03T08:50:35.246Z,240
2017-09-03T08:51:49.304Z,265
2017-09-03T08:53:02.971Z,280
2017-09-03T08:54:16.569Z,265
2017-09-03T08:55:30.812Z,240
2017-09-03T08:56:44.402Z,220
2017-09-03T08:57:58.503Z,210
2017-09-03T08:59:12.066Z,205
2017-09-03T09:00:25.969Z,205
2017-09-03T09:01:39.557Z,195
2017-09-03T09:02:53.172Z,195
2017-09-03T09:04:07.092Z,190
2017-09-03T09:05:21.056Z,200
2017-09-03T09:06:34.653Z,205
2017-09-03T09:07:48.241Z,195
2017-09-03T09:09:02.241Z,210
2017-09-03T09:10:16.726Z,225
2017-09-03T09:11:30.308Z,220
2017-09-03T09:12:44.055Z,215
2017-09-03T09:13:57.691Z,220
2017-09-03T09:15:11.604Z,220
2017-09-03T09:16:25.503Z,215
2017-09-03T09:17:39.070Z,210
2017-09-03T09:18:52.828Z,235
2017-09-03T09:20:06.725Z,250
2017-09-03T09:21:20.422Z,205
2017-09-03T09:22:34.415Z,190
2017-09-03T09:23:48.015Z,185
2017-09-03T09:25:01.962Z,185
2017-09-03T09:26:15.533Z,180
2017-09-03T09:27:29.187Z,175
2017-09-03T09:28:43.089Z,170
2017-09-03T09:29:56.720Z,165
2017-09-03T09:31:10.374Z,165
2017-09-03T09:32:24.823Z,165
2017-09-03T09:33:38.803Z,165
2017-09-03T09:34:52.746Z,175
2017-09-03T09:36:06.868Z,190
2017-09-03T09:37:20.804Z,185
2017-09-03T09:38:34.395Z,175
2017-09-03T09:39:48.034Z,175
2017-09-03T09:41:01.925Z,175
2017-09-03T09:42:15.552Z,180
2017-09-03T09:43:29.523Z,180
2017-09-03T09:44:43.149Z,175
2017-09-03T09:45:56.848Z,170
2017-09-03T09:47:11.656Z,165
2017-09-03T09:48:25.416Z,170
2017-09-03T09:49:39.098Z,165
2017-09-03T09:50:53.022Z,165
2017-09-03T09:52:06.723Z,165
2017-09-03T09:53:20.971Z,165
2017-09-03T09:54:34.606Z,165
2017-09-03T09:55:48.283Z,165
2017-09-03T09:57:01.883Z,160
2017-09-03T09:58:15.477Z,160
2017-09-03T09:59:29.577Z,160
2017-09-03T10:00:43.159Z,160
2017-09-03T10:01:56.763Z,165
2017-09-03T10:03:10.394Z,165
2017-09-03T10:04:24.507Z,170
2017-09-03T10:05:38.479Z,170
2017-09-03T10:06:52.083Z,175
2017-09-03T10:08:06.356Z,175
2017-09-03T10:09:19.977Z,180
2017-09-03T10:10:33.650Z,180
2017-09-03T10:11:47.953Z,180
2017-09-03T10:13:01.560Z,185
2017-09-03T10:14:15.177Z,190
2017-09-03T10:15:28.776Z,200
2017-09-03T10:16:43.117Z,200
2017-09-03T10:17:57.081Z,200
2017-09-03T10:19:10.692Z,190
2017-09-03T10:20:24.834Z,190
2017-09-03T10:21:38.499Z,185
2017-09-03T10:22:52.086Z,190
2017-09-03T10:24:05.971Z,205
2017-09-03T10:25:20.135Z,205
2017-09-03T10:26:33.763Z,215
2017-09-03T10:27:47.406Z,210
2017-09-03T10:29:01.157Z,215
2017-09-03T10:30:15.098Z,210
2017-09-03T10:31:28.733Z,210
2017-09-03T10:32:42.417Z,210
2017-09-03T10:33:56.016Z,200
2017-09-03T10:35:09.712Z,200
2017-09-03T10:36:23.677Z,200
2017-09-03T10:37:37.288Z,205
2017-09-03T10:38:50.906Z,205
2017-09-03T10:40:04.520Z,195
2017-09-03T10:41:18.363Z,195
2017-09-03T10:42:32.268Z,195
2017-09-03T10:43:45.845Z,195
2017-09-03T10:44:59.929Z,185
2017-09-03T10:46:13.515Z,180
2017-09-03T10:47:27.112Z,175
2017-09-03T10:48:41.339Z,170
2017-09-03T10:49:55.447Z,170
2017-09-03T10:51:09.049Z,170
2017-09-03T10:52:23.066Z,170
2017-09-03T10:53:36.655Z,165
2017-09-03T10:54:50.635Z,165
2017-09-03T10:56:04.245Z,170
2017-09-03T10:59:32.471Z,170
2017-09-03T11:00:46.111Z,165
2017-09-03T11:01:59.708Z,165
2017-09-03T11:03:13.498Z,170
2017-09-03T11:04:27.079Z,175
2017-09-03T11:05:41.007Z,170
2017-09-03T11:06:54.654Z,165
2017-09-03T11:08:08.536Z,170
2017-09-03T11:09:22.127Z,175
2017-09-03T11:10:36.190Z,180
2017-09-03T11:11:50.255Z,180
2017-09-03T11:13:03.868Z,190
2017-09-03T11:14:17.655Z,195
2017-09-03T11:15:31.409Z,200
2017-09-03T11:16:45.253Z,195
2017-09-03T11:17:59.637Z,185
2017-09-03T11:19:13.224Z,185
2017-09-03T11:20:26.837Z,190
2017-09-03T11:21:40.505Z,200
2017-09-03T11:22:55.078Z,205
2017-09-03T11:24:09.436Z,200
2017-09-03T11:25:23.959Z,190
2017-09-03T11:26:37.927Z,170
2017-09-03T11:27:52.240Z,155
2017-09-03T11:29:06.053Z,150
2017-09-03T11:30:20.101Z,150
2017-09-03T11:31:33.771Z,155
2017-09-03T11:32:47.366Z,155
2017-09-03T11:34:01.038Z,150
2017-09-03T11:35:14.964Z,150
2017-09-03T11:36:28.993Z,155
2017-09-03T11:37:43.196Z,155
2017-09-03T11:38:56.807Z,155
2017-09-03T11:40:10.400Z,150
2017-09-03T11:41:24.036Z,150
2017-09-03T11:42:38.281Z,145
2017-09-03T11:43:52.122Z,145
2017-09-03T11:45:06.020Z,150
2017-09-03T11:46:19.607Z,155
2017-09-03T11:47:33.231Z,155
2017-09-03T11:48:47.199Z,155
2017-09-03T11:50:00.828Z,155
2017-09-03T11:51:14.555Z,155
2017-09-03T11:52:28.185Z,150
2017-09-03T11:53:41.978Z,150
2017-09-03T11:54:55.870Z,150
2017-09-03T11:56:09.461Z,150
2017-09-03T11:57:23.199Z,155
2017-09-03T11:58:37.162Z,160
2017-09-03T11:59:50.999Z,165
2017-09-03T12:01:04.932Z,175
2017-09-03T12:02:18.737Z,180
2017-09-03T12:03:32.529Z,185
2017-09-03T12:04:46.194Z,175
2017-09-03T12:05:59.860Z,170
2017-09-03T12:07:14.085Z,170
2017-09-03T12:08:28.019Z,165
2017-09-03T12:09:41.703Z,165
2017-09-03T12:10:55.342Z,165
2017-09-03T12:12:08.949Z,165
2017-09-03T12:13:22.857Z,180
2017-09-03T12:14:36.443Z,180
2017-09-03T12:15:50.542Z,185
2017-09-03T12:17:04.684Z,190
2017-09-03T12:18:18.637Z,195
2017-09-03T12:19:32.534Z,200
2017-09-03T12:20:46.113Z,200
2017-09-03T12:21:59.844Z,200
2017-09-03T12:23:13.437Z,205
2017-09-03T12:24:27.061Z,210
2017-09-03T12:25:40.946Z,210
2017-09-03T12:26:54.772Z,205
2017-09-03T12:28:08.395Z,200
2017-09-03T12:29:22.297Z,205
2017-09-03T12:30:36.097Z,205
2017-09-03T12:31:50.489Z,200
2017-09-03T12:33:04.146Z,195
2017-09-03T12:34:17.770Z,190
2017-09-03T12:35:31.397Z,180
2017-09-03T12:36:45.387Z,175
2017-09-03T12:37:59.352Z,170
2017-09-03T12:39:13.664Z,165
2017-09-03T12:40:27.390Z,165
2017-09-03T12:41:41.410Z,170
2017-09-03T12:42:55.155Z,170
2017-09-03T12:44:09.719Z,170
2017-09-03T12:45:23.842Z,170
2017-09-03T12:46:37.641Z,170
2017-09-03T12:47:51.555Z,165
2017-09-03T12:49:05.773Z,160
2017-09-03T12:50:19.995Z,155
2017-09-03T12:51:33.962Z,155
2017-09-03T12:52:47.803Z,155
2017-09-03T12:54:01.417Z,155
2017-09-03T12:55:15.077Z,155
2017-09-03T12:56:29.839Z,160
2017-09-03T12:57:44.021Z,160
2017-09-03T12:58:58.684Z,160
2017-09-03T13:00:12.686Z,160
2017-09-03T13:01:26.299Z,160
2017-09-03T13:02:40.267Z,160
2017-09-03T13:03:54.166Z,165
2017-09-03T13:05:07.809Z,175
2017-09-03T13:06:21.441Z,175
2017-09-03T13:07:35.111Z,180
2017-09-03T13:08:49.011Z,190
2017-09-03T13:10:02.785Z,195
2017-09-03T13:11:16.425Z,195
2017-09-03T13:12:30.319Z,195
2017-09-03T13:13:43.947Z,195
2017-09-03T13:14:57.924Z,190
2017-09-03T13:16:11.557Z,190
2017-09-03T13:17:25.153Z,190
2017-09-03T13:18:38.884Z,190
2017-09-03T13:19:52.498Z,190
2017-09-03T13:21:06.457Z,190
2017-09-03T13:22:20.056Z,190
2017-09-03T13:23:34.047Z,190
2017-09-03T13:24:47.688Z,185
2017-09-03T13:26:01.780Z,185
2017-09-03T13:27:16.059Z,180
2017-09-03T13:28:29.706Z,175
2017-09-03T13:29:43.295Z,165
2017-09-03T13:30:56.889Z,155
2017-09-03T13:32:10.529Z,145
2017-09-03T13:33:25.235Z,135
2017-09-03T13:34:39.198Z,130
2017-09-03T13:35:53.171Z,125
2017-09-03T13:37:07.273Z,125
2017-09-03T13:38:21.241Z,120
2017-09-03T13:39:35.206Z,125
2017-09-03T13:40:48.933Z,125
2017-09-03T13:42:02.846Z,125
2017-09-03T13:43:16.666Z,130
2017-09-03T13:44:30.316Z,130
2017-09-03T13:45:44.410Z,130
2017-09-03T13:46:58.029Z,130
2017-09-03T13:48:11.677Z,125
2017-09-03T13:49:25.443Z,130
2017-09-03T13:50:39.131Z,130
2017-09-03T13:51:53.814Z,130
2017-09-03T13:53:07.838Z,130
2017-09-03T13:54:22.080Z,125
2017-09-03T13:55:35.758Z,125
2017-09-03T13:56:49.685Z,120
2017-09-03T13:58:03.635Z,115
2017-09-03T13:59:17.810Z,115
2017-09-03T14:00:31.791Z,110
2017-09-03T14:01:45.752Z,110
2017-09-03T14:02:59.362Z,110
2017-09-03T14:04:13.298Z,105
2017-09-03T14:05:27.667Z,105
2017-09-03T14:06:41.908Z,105
2017-09-03T14:07:55.564Z,105
2017-09-03T14:09:09.609Z,105
2017-09-03T14:10:23.675Z,105
2017-09-03T14:11:37.390Z,105
2017-09-03T14:12:51.199Z,110
2017-09-03T14:14:05.249Z,105
2017-09-03T14:15:19.301Z,110
2017-09-03T14:16:33.399Z,110
2017-09-03T14:17:47.356Z,110
2017-09-03T14:19:01.641Z,110
2017-09-03T14:20:15.836Z,110
2017-09-03T14:21:30.430Z,110
2017-09-03T14:22:44.367Z,110
2017-09-03T14:23:58.381Z,115
2017-09-03T14:25:12.104Z,115
2017-09-03T14:26:25.753Z,115
2017-09-03T14:27:39.793Z,115
2017-09-03T14:29:13.352Z,120
2017-09-03T14:30:27.094Z,120
2017-09-03T14:31:41.087Z,115
2017-09-03T14:32:54.732Z,115
2017-09-03T14:34:08.681Z,110
2017-09-03T14:35:22.416Z,115
2017-09-03T14:36:36.076Z,110
2017-09-03T14:37:50.160Z,110
2017-09-03T14:40:54.599Z,110
2017-09-03T14:42:08.746Z,110
2017-09-03T14:43:22.374Z,110
2017-09-03T14:44:36.048Z,105
2017-09-03T14:45:50.111Z,105
2017-09-03T14:47:03.869Z,105
2017-09-03T14:48:17.581Z,100
2017-09-03T14:49:31.343Z,105
2017-09-03T14:50:45.025Z,105
2017-09-03T14:51:59.288Z,105
2017-09-03T14:53:13.256Z,105
2017-09-03T14:54:26.909Z,110
2017-09-03T14:55:40.688Z,105
2017-09-03T14:56:54.881Z,105
2017-09-03T14:58:08.935Z,105
2017-09-03T14:59:22.896Z,100
2017-09-03T15:00:36.542Z,105
2017-09-03T15:01:50.200Z,105
2017-09-03T15:03:03.778Z,105
2017-09-03T15:04:17.656Z,105
2017-09-03T15:05:31.644Z,105
2017-09-03T15:06:45.328Z,105
2017-09-03T15:07:59.466Z,105
2017-09-03T15:09:13.665Z,105
2017-09-03T15:10:27.990Z,105
2017-09-03T15:11:42.058Z,105
2017-09-03T15:12:56.140Z,105
2017-09-03T15:14:09.776Z,105
2017-09-03T15:15:23.442Z,105
2017-09-03T15:16:37.765Z,100
2017-09-03T15:17:51.820Z,100
2017-09-03T15:19:05.443Z,100
2017-09-03T15:20:19.702Z,100
2017-09-03T15:21:33.310Z,100
2017-09-03T15:22:47.628Z,100
2017-09-03T15:24:01.309Z,100
2017-09-03T15:25:14.925Z,100
2017-09-03T15:26:28.733Z,100
2017-09-03T15:27:42.428Z,100
2017-09-03T15:28:56.363Z,100
2017-09-03T15:30:09.989Z,100
2017-09-03T15:31:23.667Z,100
2017-09-03T15:32:37.339Z,100
2017-09-03T15:33:51.588Z,100
2017-09-03T15:35:06.602Z,100
2017-09-03T15:36:20.284Z,100
2017-09-03T15:37:34.022Z,100
2017-09-03T15:38:47.743Z,100
2017-09-03T15:40:01.791Z,105
2017-09-03T15:41:15.689Z,105
2017-09-03T15:42:29.365Z,105
2017-09-03T15:43:43.360Z,100
2017-09-03T15:44:57.132Z,100
2017-09-03T15:46:11.194Z,95
2017-09-03T15:47:25.230Z,95
2017-09-03T15:48:39.637Z,95
2017-09-03T15:49:54.102Z,95
2017-09-03T15:51:08.612Z,100
2017-09-03T15:52:22.670Z,100
2017-09-03T15:53:37.434Z,105
2017-09-03T15:54:51.476Z,105
2017-09-03T15:56:05.310Z,105
2017-09-03T15:57:19.301Z,105
2017-09-03T15:58:33.262Z,105
2017-09-03T15:59:47.221Z,105
2017-09-03T16:01:01.363Z,105
2017-09-03T16:02:15.061Z,105
2017-09-03T16:03:28.714Z,100
2017-09-03T16:04:42.375Z,100
2017-09-03T16:05:56.301Z,100
2017-09-03T16:07:10.402Z,100
2017-09-03T16:08:25.265Z,100
2017-09-03T16:09:40.051Z,100
2017-09-03T16:10:54.066Z,95
2017-09-03T16:12:08.252Z,100
2017-09-03T16:13:21.881Z,100
2017-09-03T16:14:36.447Z,100
2017-09-03T16:15:50.102Z,100
2017-09-03T16:17:03.857Z,100
2017-09-03T16:18:18.077Z,95
2017-09-03T16:19:32.252Z,90
2017-09-03T16:20:46.603Z,90
2017-09-03T16:22:01.052Z,90
2017-09-03T16:23:15.018Z,90
2017-09-03T16:24:29.513Z,90
2017-09-03T16:25:43.651Z,90
2017-09-03T16:26:57.339Z,85
2017-09-03T16:28:11.088Z,85
2017-09-03T16:29:24.896Z,85
2017-09-03T16:30:38.840Z,85
2017-09-03T16:31:52.470Z,85
2017-09-03T16:33:06.092Z,85
2017-09-03T16:34:20.242Z,85
2017-09-03T16:35:35.151Z,85
2017-09-03T16:36:50.877Z,80
2017-09-03T16:38:04.592Z,80
2017-09-03T16:39:18.311Z,80
2017-09-03T16:40:32.311Z,80
2017-09-03T16:41:46.137Z,80
2017-09-03T16:43:00.811Z,80
2017-09-03T16:44:14.437Z,80
2017-09-03T16:45:28.577Z,75
2017-09-03T16:46:42.264Z,75
2017-09-03T16:47:57.823Z,75
2017-09-03T16:49:11.790Z,70
2017-09-03T16:50:25.504Z,70
2017-09-03T16:51:39.135Z,70
2017-09-03T16:52:53.270Z,70
2017-09-03T16:54:07.736Z,65
2017-09-03T16:55:21.740Z,65
2017-09-03T16:56:35.756Z,65
2017-09-03T16:57:49.403Z,60
2017-09-03T16:59:03.102Z,65
2017-09-03T17:00:16.789Z,60
2017-09-03T17:01:31.128Z,60
2017-09-03T17:02:44.802Z,55
2017-09-03T17:03:58.448Z,50
2017-09-03T17:05:12.137Z,50
2017-09-03T17:06:26.085Z,45
2017-09-03T17:07:40.028Z,45
2017-09-03T17:08:54.099Z,45
2017-09-03T17:10:08.051Z,45
2017-09-03T17:11:21.705Z,40
2017-09-03T17:12:35.313Z,40
2017-09-03T17:13:49.202Z,40
2017-09-03T17:15:02.888Z,35
2017-09-03T17:16:16.702Z,35
2017-09-03T17:17:45.803Z,35
2017-09-03T17:18:59.792Z,35
2017-09-03T17:20:13.386Z,35
2017-09-03T17:21:27.012Z,30
2017-09-03T17:22:40.681Z,30
2017-09-03T17:23:56.171Z,30
2017-09-03T17:25:11.501Z,30
2017-09-03T17:26:25.218Z,30